Time;durP1;ratioP1;P1;durP2;ratioP2;P2;SDS_P1;SDS_P2;PMS_P1;PMS_P2;Temp;Humidity;BMP_temperature;BMP_pressure;BME280_temperature;BME280_humidity;BME280_pressure;Samples;Min_cycle;Max_cycle;Signal;HPM_P1;HPM_P2
2021/06/12 00:00:31;;;;;;;;;;;;;;;;;;1482516;40;6999;-63
2021/06/12 00:01:33;;;;;;;;;;;;;;;;;;1482950;40;7010;-64
2021/06/12 00:02:36;;;;;;;;;;;;;;;;;;1482858;40;7951;-65
2021/06/12 00:03:38;;;;;;;;;;;;;;;;;;1482517;40;7003;-64
2021/06/12 00:04:41;;;;;;;;;;;;;;;;;;1482783;40;7008;-67
2021/06/12 00:05:43;;;;;;;;;;;;;;;;;;1482439;40;7048;-64
2021/06/12 00:06:45;;;;;;;;;;;;;;;;;;1482664;40;7000;-63
2021/06/12 00:07:48;;;;;;;;;;;;;;;;;;1482620;40;7055;-66
2021/06/12 00:08:50;;;;;;;;;;;;;;;;;;1482566;40;7035;-63
2021/06/12 00:09:53;;;;;;;;;;;;;;;;;;1482801;40;7976;-64
2021/06/12 00:10:55;;;;;;;;;;;;;;;;;;1482984;40;7959;-63
2021/06/12 00:11:58;;;;;;;;;;;;;;;;;;1482898;40;7937;-67
2021/06/12 00:13:00;;;;;;;;;;;;;;;;;;1483085;40;7017;-65
2021/06/12 00:14:03;;;;;;;;;;;;;;;;;;1482636;40;6999;-63
2021/06/12 00:15:07;;;;;;;;;;;;;;;;;;1482613;40;7007;-63
2021/06/12 00:16:10;;;;;;;;;;;;;;;;;;1482097;40;9278;-65
2021/06/12 00:17:12;;;;;;;;;;;;;;;;;;1482254;40;7120;-63
2021/06/12 00:18:14;;;;;;;;;;;;;;;;;;1486380;40;7007;-66
2021/06/12 00:19:17;;;;;;;;;;;;;;;;;;1483896;40;7007;-67
2021/06/12 00:20:21;;;;;;;;;;;;;;;;;;1482123;40;7171;-64
2021/06/12 00:21:23;;;;;;;;;;;;;;;;;;1485218;40;7095;-65
2021/06/12 00:22:26;;;;;;;;;;;;;;;;;;1482094;40;7924;-67
2021/06/12 00:23:28;;;;;;;;;;;;;;;;;;1482112;40;7184;-65
2021/06/12 00:24:31;;;;;;;;;;;;;;;;;;1482533;40;7038;-66
2021/06/12 00:25:34;;;;;;;;;;;;;;;;;;1482217;40;7011;-63
2021/06/12 00:26:37;;;;;;;;;;;;;;;;;;1482566;40;6999;-65
2021/06/12 00:27:40;;;;;;;;;;;;;;;;;;1482202;40;7043;-63
2021/06/12 00:28:42;;;;;;;;;;;;;;;;;;1482719;40;7269;-65
2021/06/12 00:29:44;;;;;;;;;;;;;;;;;;1482311;40;7027;-64
2021/06/12 00:30:47;;;;;;;;;;;;;;;;;;1482174;40;7011;-65
2021/06/12 00:31:49;;;;;;;;;;;;;;;;;;1482052;40;7003;-65
2021/06/12 00:32:53;;;;;;;;;;;;;;;;;;1482082;40;7003;-65
2021/06/12 00:33:56;;;;;;;;;;;;;;;;;;1482232;40;7016;-64
2021/06/12 00:34:58;;;;;;;;;;;;;;;;;;1482400;40;7030;-65
2021/06/12 00:36:00;;;;;;;;;;;;;;;;;;1477980;40;7003;-64
2021/06/12 00:37:03;;;;;;;;;;;;;;;;;;1477525;40;7917;-63
2021/06/12 00:38:06;;;;;;;;;;;;;;;;;;1482300;40;7019;-64
2021/06/12 00:39:08;;;;;;;;;;;;;;;;;;1486780;40;7016;-65
2021/06/12 00:40:12;;;;;;;;;;;;;;;;;;1486762;39;7911;-64
2021/06/12 00:41:15;;;;;;;;;;;;;;;;;;1487104;40;7941;-66
2021/06/12 00:42:17;;;;;;;;;;;;;;;;;;1482748;40;7079;-66
2021/06/12 00:43:19;;;;;;;;;;;;;;;;;;1483233;40;7983;-66
2021/06/12 00:44:22;;;;;;;;;;;;;;;;;;1483008;40;7015;-64
2021/06/12 00:45:27;;;;;;;;;;;;;;;;;;1482659;40;7066;-65
2021/06/12 00:46:30;;;;;;;;;;;;;;;;;;1483141;40;7058;-65
2021/06/12 00:47:32;;;;;;;;;;;;;;;;;;1483041;40;7000;-63
2021/06/12 00:48:35;;;;;;;;;;;;;;;;;;1482804;40;7192;-66
2021/06/12 00:49:37;;;;;;;;;;;;;;;;;;1483380;40;7023;-63
2021/06/12 00:50:41;;;;;;;;;;;;;;;;;;1483246;40;7018;-64
2021/06/12 00:51:43;;;;;;;;;;;;;;;;;;1482841;40;7003;-64
2021/06/12 00:52:46;;;;;;;;;;;;;;;;;;1483012;40;7959;-65
2021/06/12 00:53:48;;;;;;;;;;;;;;;;;;1482872;40;7008;-66
2021/06/12 00:54:51;;;;;;;;;;;;;;;;;;1483270;40;7116;-65
2021/06/12 00:55:53;;;;;;;;;;;;;;;;;;1483004;40;6999;-64
2021/06/12 00:56:57;;;;;;;;;;;;;;;;;;1483161;40;7058;-63
2021/06/12 00:57:59;;;;;;;;;;;;;;;;;;1483154;40;7401;-64
2021/06/12 00:59:02;;;;;;;;;;;;;;;;;;1483340;40;7011;-66
2021/06/12 01:00:23;;;;;;;;;;;;;;;;;;1483209;40;9890;-65
2021/06/12 01:01:26;;;;;;;;;;;;;;;;;;1483463;40;7012;-64
2021/06/12 01:02:28;;;;;;;;;;;;;;;;;;1482986;40;7043;-65
2021/06/12 01:03:31;;;;;;;;;;;;;;;;;;1482874;40;7016;-66
2021/06/12 01:04:33;;;;;;;;;;;;;;;;;;1482991;40;7027;-62
2021/06/12 01:05:36;;;;;;;;;;;;;;;;;;1483302;40;6995;-64
2021/06/12 01:06:38;;;;;;;;;;;;;;;;;;1483030;40;7048;-63
2021/06/12 01:07:41;;;;;;;;;;;;;;;;;;1483268;40;7003;-64
2021/06/12 01:08:43;;;;;;;;;;;;;;;;;;1482740;40;7007;-65
2021/06/12 01:09:46;;;;;;;;;;;;;;;;;;1483268;40;7011;-64
2021/06/12 01:10:48;;;;;;;;;;;;;;;;;;1483253;40;7106;-65
2021/06/12 01:11:51;;;;;;;;;;;;;;;;;;1487202;40;7003;-64
2021/06/12 01:12:56;;;;;;;;;;;;;;;;;;1487101;40;7003;-66
2021/06/12 01:14:05;;;;;;;;;;;;;;;;;;1482535;40;7913;-65
2021/06/12 01:15:09;;;;;;;;;;;;;;;;;;1482721;40;7016;-65
2021/06/12 01:16:12;;;;;;;;;;;;;;;;;;1482921;40;7004;-66
2021/06/12 01:17:17;;;;;;;;;;;;;;;;;;1482889;40;7035;-63
2021/06/12 01:18:25;;;;;;;;;;;;;;;;;;1486877;40;7035;-65
2021/06/12 01:19:37;;;;;;;;;;;;;;;;;;1483809;40;7007;-66
2021/06/12 01:20:51;;;;;;;;;;;;;;;;;;1482057;40;7039;-66
2021/06/12 01:21:59;;;;;;;;;;;;;;;;;;1485565;40;7028;-66
2021/06/12 01:23:13;;;;;;;;;;;;;;;;;;1486840;40;7115;-66
2021/06/12 01:24:34;;;;;;;;;;;;;;;;;;1486778;40;7035;-64
2021/06/12 01:26:15;;;;;;;;;;;;;;;;;;1486393;40;7003;-63
2021/06/12 01:27:17;;;;;;;;;;;;;;;;;;1465215;40;7007;-63
2021/06/12 01:28:35;;;;;;;;;;;;;;;;;;1468410;40;7035;-63
2021/06/12 01:29:45;;;;;;;;;;;;;;;;;;1467736;40;7060;-65
2021/06/12 01:30:51;;;;;;;;;;;;;;;;;;1466253;40;7007;-66
2021/06/12 01:31:56;;;;;;;;;;;;;;;;;;1469200;40;7043;-67
2021/06/12 01:33:07;;;;;;;;;;;;;;;;;;1472248;40;7101;-63
2021/06/12 01:34:11;;;;;;;;;;;;;;;;;;1486095;40;7035;-65
2021/06/12 01:35:34;;;;;;;;;;;;;;;;;;1486919;40;7000;-66
2021/06/12 01:36:36;;;;;;;;;;;;;;;;;;1487022;40;7903;-65
2021/06/12 01:37:41;;;;;;;;;;;;;;;;;;1486599;40;7098;-65
2021/06/12 01:38:46;;;;;;;;;;;;;;;;;;1487326;40;7030;-66
2021/06/12 01:39:50;;;;;;;;;;;;;;;;;;1487126;40;7043;-65
2021/06/12 01:40:55;;;;;;;;;;;;;;;;;;1487277;40;7034;-64
2021/06/12 01:42:02;;;;;;;;;;;;;;;;;;1486980;40;7000;-66
2021/06/12 01:43:07;;;;;;;;;;;;;;;;;;1487316;40;7012;-66
2021/06/12 01:44:11;;;;;;;;;;;;;;;;;;1487496;40;7007;-65
2021/06/12 01:45:14;;;;;;;;;;;;;;;;;;1487330;40;7878;-66
2021/06/12 01:46:17;;;;;;;;;;;;;;;;;;1482739;40;7012;-64
2021/06/12 01:47:20;;;;;;;;;;;;;;;;;;1483417;40;7040;-65
2021/06/12 01:48:23;;;;;;;;;;;;;;;;;;1483212;40;7007;-66
2021/06/12 01:49:26;;;;;;;;;;;;;;;;;;1483121;40;7039;-67
2021/06/12 01:50:30;;;;;;;;;;;;;;;;;;1483273;40;7059;-65
2021/06/12 01:51:33;;;;;;;;;;;;;;;;;;1482434;40;7897;-65
2021/06/12 01:52:40;;;;;;;;;;;;;;;;;;1482621;40;7106;-65
2021/06/12 01:53:44;;;;;;;;;;;;;;;;;;1483019;40;7003;-64
2021/06/12 01:54:48;;;;;;;;;;;;;;;;;;1483260;40;7034;-63
2021/06/12 01:55:50;;;;;;;;;;;;;;;;;;1483157;40;7900;-65
2021/06/12 01:56:54;;;;;;;;;;;;;;;;;;1483186;40;7007;-64
2021/06/12 01:57:57;;;;;;;;;;;;;;;;;;1483051;40;6999;-66
2021/06/12 01:59:01;;;;;;;;;;;;;;;;;;1487045;40;7056;-65
2021/06/12 02:00:04;;;;;;;;;;;;;;;;;;1487164;40;7922;-66
2021/06/12 02:01:10;;;;;;;;;;;;;;;;;;1487192;40;7747;-64
2021/06/12 02:02:12;;;;;;;;;;;;;;;;;;1483865;40;6999;-65
2021/06/12 02:03:16;;;;;;;;;;;;;;;;;;1482901;40;7003;-66
2021/06/12 02:04:20;;;;;;;;;;;;;;;;;;1482957;40;7008;-66
2021/06/12 02:05:24;;;;;;;;;;;;;;;;;;1483146;40;7040;-63
2021/06/12 02:06:27;;;;;;;;;;;;;;;;;;1482769;40;6999;-66
2021/06/12 02:07:31;;;;;;;;;;;;;;;;;;1482964;40;6999;-65
2021/06/12 02:08:33;;;;;;;;;;;;;;;;;;1482708;40;7250;-67
2021/06/12 02:09:37;;;;;;;;;;;;;;;;;;1482933;40;7123;-63
2021/06/12 02:10:40;;;;;;;;;;;;;;;;;;1482771;40;6995;-64
2021/06/12 02:11:44;;;;;;;;;;;;;;;;;;1482920;40;7083;-64
2021/06/12 02:12:46;;;;;;;;;;;;;;;;;;1483161;40;7012;-64
2021/06/12 02:13:49;;;;;;;;;;;;;;;;;;1478225;40;7109;-65
2021/06/12 02:14:53;;;;;;;;;;;;;;;;;;1478425;40;7887;-65
2021/06/12 02:15:57;;;;;;;;;;;;;;;;;;1483005;40;7031;-64
2021/06/12 02:17:01;;;;;;;;;;;;;;;;;;1482963;40;7007;-66
2021/06/12 02:18:06;;;;;;;;;;;;;;;;;;1486084;40;7031;-66
2021/06/12 02:19:10;;;;;;;;;;;;;;;;;;1483318;40;7019;-63
2021/06/12 02:20:14;;;;;;;;;;;;;;;;;;1482599;40;6999;-66
2021/06/12 02:21:19;;;;;;;;;;;;;;;;;;1483330;40;6999;-65
2021/06/12 02:22:22;;;;;;;;;;;;;;;;;;1486701;40;7035;-67
2021/06/12 02:23:26;;;;;;;;;;;;;;;;;;1485480;40;6999;-63
2021/06/12 02:24:29;;;;;;;;;;;;;;;;;;1486646;40;7190;-66
2021/06/12 02:25:33;;;;;;;;;;;;;;;;;;1487032;40;7015;-66
2021/06/12 02:26:41;;;;;;;;;;;;;;;;;;1486908;40;7901;-67
2021/06/12 02:27:49;;;;;;;;;;;;;;;;;;1482083;40;7024;-66
2021/06/12 02:28:52;;;;;;;;;;;;;;;;;;1484950;40;7946;-64
2021/06/12 02:29:56;;;;;;;;;;;;;;;;;;1482364;40;6999;-66
2021/06/12 02:31:03;;;;;;;;;;;;;;;;;;1482130;40;7206;-65
2021/06/12 02:32:10;;;;;;;;;;;;;;;;;;1484944;40;7813;-65
2021/06/12 02:33:14;;;;;;;;;;;;;;;;;;1485523;40;7003;-66
2021/06/12 02:34:17;;;;;;;;;;;;;;;;;;1482655;40;7041;-63
2021/06/12 02:35:19;;;;;;;;;;;;;;;;;;1483054;40;7015;-66
2021/06/12 02:36:21;;;;;;;;;;;;;;;;;;1482788;40;7003;-64
2021/06/12 02:37:24;;;;;;;;;;;;;;;;;;1482368;40;7004;-66
2021/06/12 02:38:27;;;;;;;;;;;;;;;;;;1482397;40;7043;-64
2021/06/12 02:39:29;;;;;;;;;;;;;;;;;;1483016;40;7922;-65
2021/06/12 02:40:32;;;;;;;;;;;;;;;;;;1486382;40;7107;-64
2021/06/12 02:41:35;;;;;;;;;;;;;;;;;;1486867;40;8614;-66
2021/06/12 02:42:37;;;;;;;;;;;;;;;;;;1482850;40;7004;-64
2021/06/12 02:43:40;;;;;;;;;;;;;;;;;;1482750;40;7067;-64
2021/06/12 02:44:42;;;;;;;;;;;;;;;;;;1483020;40;7943;-66
2021/06/12 02:45:44;;;;;;;;;;;;;;;;;;1483185;40;7858;-65
2021/06/12 02:46:47;;;;;;;;;;;;;;;;;;1484615;40;7968;-64
2021/06/12 02:47:58;;;;;;;;;;;;;;;;;;1487207;40;7128;-66
2021/06/12 02:49:04;;;;;;;;;;;;;;;;;;1487130;40;7083;-65
2021/06/12 02:50:08;;;;;;;;;;;;;;;;;;1482356;40;7015;-67
2021/06/12 02:51:10;;;;;;;;;;;;;;;;;;1482601;40;7043;-64
2021/06/12 02:52:16;;;;;;;;;;;;;;;;;;1486752;40;7031;-63
2021/06/12 02:53:22;;;;;;;;;;;;;;;;;;1487465;40;7051;-66
2021/06/12 02:54:25;;;;;;;;;;;;;;;;;;1482523;40;7913;-65
2021/06/12 02:55:29;;;;;;;;;;;;;;;;;;1483401;40;7003;-66
2021/06/12 02:56:32;;;;;;;;;;;;;;;;;;1482576;40;7035;-66
2021/06/12 02:57:37;;;;;;;;;;;;;;;;;;1483283;40;7031;-66
2021/06/12 02:58:40;;;;;;;;;;;;;;;;;;1483054;40;7048;-66
2021/06/12 02:59:45;;;;;;;;;;;;;;;;;;1483322;40;7124;-63
2021/06/12 03:00:49;;;;;;;;;;;;;;;;;;1482803;40;6999;-66
2021/06/12 03:01:53;;;;;;;;;;;;;;;;;;1483068;40;7008;-65
2021/06/12 03:02:56;;;;;;;;;;;;;;;;;;1482917;40;7035;-64
2021/06/12 03:03:59;;;;;;;;;;;;;;;;;;1482713;40;7035;-64
2021/06/12 03:05:03;;;;;;;;;;;;;;;;;;1487072;40;7107;-66
2021/06/12 03:06:07;;;;;;;;;;;;;;;;;;1487005;40;7899;-65
2021/06/12 03:07:14;;;;;;;;;;;;;;;;;;1486829;40;8559;-63
2021/06/12 03:08:18;;;;;;;;;;;;;;;;;;1487178;40;7035;-65
2021/06/12 03:09:24;;;;;;;;;;;;;;;;;;1487422;40;7039;-64
2021/06/12 03:10:29;;;;;;;;;;;;;;;;;;1487144;40;7120;-66
2021/06/12 03:11:33;;;;;;;;;;;;;;;;;;1487042;40;7035;-65
2021/06/12 03:12:37;;;;;;;;;;;;;;;;;;1483657;40;7031;-62
2021/06/12 03:13:43;;;;;;;;;;;;;;;;;;1482493;40;7115;-65
2021/06/12 03:14:48;;;;;;;;;;;;;;;;;;1482829;40;7886;-66
2021/06/12 03:15:52;;;;;;;;;;;;;;;;;;1482962;40;8445;-63
2021/06/12 03:16:55;;;;;;;;;;;;;;;;;;1482283;40;7007;-66
2021/06/12 03:17:58;;;;;;;;;;;;;;;;;;1485148;40;7008;-63
2021/06/12 03:19:01;;;;;;;;;;;;;;;;;;1484996;40;7015;-63
2021/06/12 03:20:05;;;;;;;;;;;;;;;;;;1482260;40;7003;-66
2021/06/12 03:21:09;;;;;;;;;;;;;;;;;;1482310;40;7008;-63
2021/06/12 03:22:12;;;;;;;;;;;;;;;;;;1482371;40;7916;-64
2021/06/12 03:23:16;;;;;;;;;;;;;;;;;;1482425;40;7003;-65
2021/06/12 03:24:19;;;;;;;;;;;;;;;;;;1482502;40;7043;-63
2021/06/12 03:25:23;;;;;;;;;;;;;;;;;;1482653;40;7016;-66
2021/06/12 03:26:26;;;;;;;;;;;;;;;;;;1482460;40;7011;-66
2021/06/12 03:27:29;;;;;;;;;;;;;;;;;;1482404;40;7895;-64
2021/06/12 03:28:32;;;;;;;;;;;;;;;;;;1482963;40;7039;-67
2021/06/12 03:29:35;;;;;;;;;;;;;;;;;;1482875;40;7016;-65
2021/06/12 03:30:37;;;;;;;;;;;;;;;;;;1482198;40;7022;-64
2021/06/12 03:31:40;;;;;;;;;;;;;;;;;;1482521;40;7012;-66
2021/06/12 03:32:43;;;;;;;;;;;;;;;;;;1482368;40;7008;-63
2021/06/12 03:33:46;;;;;;;;;;;;;;;;;;1482233;40;7039;-64
2021/06/12 03:34:49;;;;;;;;;;;;;;;;;;1482945;40;7117;-64
2021/06/12 03:35:53;;;;;;;;;;;;;;;;;;1482874;40;7011;-65
2021/06/12 03:36:57;;;;;;;;;;;;;;;;;;1482068;40;7035;-65
2021/06/12 03:38:00;;;;;;;;;;;;;;;;;;1482105;40;7008;-66
2021/06/12 03:39:03;;;;;;;;;;;;;;;;;;1478443;40;7007;-65
2021/06/12 03:40:06;;;;;;;;;;;;;;;;;;1478354;40;7012;-65
2021/06/12 03:41:10;;;;;;;;;;;;;;;;;;1482822;40;7150;-63
2021/06/12 03:42:14;;;;;;;;;;;;;;;;;;1483037;40;7008;-63
2021/06/12 03:43:17;;;;;;;;;;;;;;;;;;1482303;40;7000;-65
2021/06/12 03:44:22;;;;;;;;;;;;;;;;;;1483070;40;7935;-66
2021/06/12 03:45:27;;;;;;;;;;;;;;;;;;1482489;40;7016;-64
2021/06/12 03:46:29;;;;;;;;;;;;;;;;;;1482740;40;7087;-63
2021/06/12 03:47:33;;;;;;;;;;;;;;;;;;1483254;40;7044;-65
2021/06/12 03:48:38;;;;;;;;;;;;;;;;;;1483197;40;7015;-66
2021/06/12 03:49:41;;;;;;;;;;;;;;;;;;1482875;40;7036;-64
2021/06/12 03:50:44;;;;;;;;;;;;;;;;;;1482778;40;7000;-66
2021/06/12 03:51:47;;;;;;;;;;;;;;;;;;1482602;40;7924;-65
2021/06/12 03:52:50;;;;;;;;;;;;;;;;;;1482553;40;7898;-65
2021/06/12 03:53:53;;;;;;;;;;;;;;;;;;1482852;40;7002;-66
2021/06/12 03:54:56;;;;;;;;;;;;;;;;;;1482736;40;7891;-67
2021/06/12 03:56:00;;;;;;;;;;;;;;;;;;1482754;40;7311;-65
2021/06/12 03:57:03;;;;;;;;;;;;;;;;;;1482441;40;7116;-64
2021/06/12 03:58:06;;;;;;;;;;;;;;;;;;1482810;40;7235;-68
2021/06/12 03:59:09;;;;;;;;;;;;;;;;;;1482568;40;7895;-66
2021/06/12 04:00:13;;;;;;;;;;;;;;;;;;1482830;40;7042;-65
2021/06/12 04:01:18;;;;;;;;;;;;;;;;;;1482462;40;7007;-63
2021/06/12 04:02:21;;;;;;;;;;;;;;;;;;1482537;40;7995;-65
2021/06/12 04:03:24;;;;;;;;;;;;;;;;;;1482442;40;7870;-65
2021/06/12 04:04:27;;;;;;;;;;;;;;;;;;1482770;40;7047;-64
2021/06/12 04:05:29;;;;;;;;;;;;;;;;;;1482686;40;7039;-64
2021/06/12 04:06:32;;;;;;;;;;;;;;;;;;1483086;40;6999;-65
2021/06/12 04:07:36;;;;;;;;;;;;;;;;;;1482115;40;7046;-64
2021/06/12 04:08:39;;;;;;;;;;;;;;;;;;1482365;40;7007;-67
2021/06/12 04:09:41;;;;;;;;;;;;;;;;;;1482351;40;7039;-66
2021/06/12 04:10:44;;;;;;;;;;;;;;;;;;1482690;40;7051;-63
2021/06/12 04:11:46;;;;;;;;;;;;;;;;;;1482555;40;7007;-65
2021/06/12 04:12:48;;;;;;;;;;;;;;;;;;1482868;40;7007;-64
2021/06/12 04:13:51;;;;;;;;;;;;;;;;;;1482684;40;7011;-67
2021/06/12 04:14:53;;;;;;;;;;;;;;;;;;1482945;40;7035;-66
2021/06/12 04:15:56;;;;;;;;;;;;;;;;;;1483118;40;7199;-67
2021/06/12 04:16:59;;;;;;;;;;;;;;;;;;1482243;40;7027;-66
2021/06/12 04:18:07;;;;;;;;;;;;;;;;;;1484722;40;8046;-63
2021/06/12 04:19:10;;;;;;;;;;;;;;;;;;1484355;40;7003;-63
2021/06/12 04:20:13;;;;;;;;;;;;;;;;;;1482347;40;7047;-65
2021/06/12 04:21:15;;;;;;;;;;;;;;;;;;1484873;40;7919;-66
2021/06/12 04:22:17;;;;;;;;;;;;;;;;;;1482503;40;7000;-65
2021/06/12 04:23:20;;;;;;;;;;;;;;;;;;1481890;40;7968;-66
2021/06/12 04:24:23;;;;;;;;;;;;;;;;;;1486790;40;7126;-66
2021/06/12 04:25:25;;;;;;;;;;;;;;;;;;1486490;40;7014;-63
2021/06/12 04:26:28;;;;;;;;;;;;;;;;;;1486260;40;7944;-67
2021/06/12 04:27:31;;;;;;;;;;;;;;;;;;1486461;40;7003;-64
2021/06/12 04:28:34;;;;;;;;;;;;;;;;;;1486343;40;7054;-64
2021/06/12 04:29:36;;;;;;;;;;;;;;;;;;1486330;40;7286;-65
2021/06/12 04:30:39;;;;;;;;;;;;;;;;;;1483167;40;7027;-64
2021/06/12 04:31:41;;;;;;;;;;;;;;;;;;1482888;40;7027;-64
2021/06/12 04:32:44;;;;;;;;;;;;;;;;;;1484159;40;7003;-66
2021/06/12 04:33:46;;;;;;;;;;;;;;;;;;1482066;40;7019;-66
2021/06/12 04:34:49;;;;;;;;;;;;;;;;;;1485125;40;7947;-66
2021/06/12 04:35:51;;;;;;;;;;;;;;;;;;1486868;40;7003;-66
2021/06/12 04:36:54;;;;;;;;;;;;;;;;;;1486073;40;7045;-65
2021/06/12 04:38:00;;;;;;;;;;;;;;;;;;1486086;40;7000;-67
2021/06/12 04:39:03;;;;;;;;;;;;;;;;;;1486671;40;7030;-65
2021/06/12 04:40:05;;;;;;;;;;;;;;;;;;1486806;40;7039;-65
2021/06/12 04:41:08;;;;;;;;;;;;;;;;;;1486837;40;7020;-66
2021/06/12 04:42:10;;;;;;;;;;;;;;;;;;1486766;40;7012;-66
2021/06/12 04:43:13;;;;;;;;;;;;;;;;;;1483434;40;7047;-64
2021/06/12 04:44:16;;;;;;;;;;;;;;;;;;1482834;40;7846;-66
2021/06/12 04:45:18;;;;;;;;;;;;;;;;;;1482579;40;7039;-64
2021/06/12 04:46:20;;;;;;;;;;;;;;;;;;1482523;40;7006;-64
2021/06/12 04:47:23;;;;;;;;;;;;;;;;;;1482386;40;7111;-65
2021/06/12 04:48:25;;;;;;;;;;;;;;;;;;1482548;40;7051;-62
2021/06/12 04:49:28;;;;;;;;;;;;;;;;;;1482499;40;7417;-66
2021/06/12 04:50:34;;;;;;;;;;;;;;;;;;1482772;40;7035;-65
2021/06/12 04:51:37;;;;;;;;;;;;;;;;;;1482537;40;7930;-65
2021/06/12 04:52:39;;;;;;;;;;;;;;;;;;1482762;40;7035;-65
2021/06/12 04:53:42;;;;;;;;;;;;;;;;;;1482735;40;7959;-66
2021/06/12 04:54:44;;;;;;;;;;;;;;;;;;1482361;40;7008;-66
2021/06/12 04:55:47;;;;;;;;;;;;;;;;;;1482478;40;7000;-66
2021/06/12 04:56:49;;;;;;;;;;;;;;;;;;1482525;40;7861;-64
2021/06/12 04:57:51;;;;;;;;;;;;;;;;;;1482689;40;7000;-66
2021/06/12 04:58:54;;;;;;;;;;;;;;;;;;1482430;40;6993;-65
2021/06/12 04:59:56;;;;;;;;;;;;;;;;;;1482782;40;6999;-64
2021/06/12 05:00:59;;;;;;;;;;;;;;;;;;1486810;40;8436;-64
2021/06/12 05:02:01;;;;;;;;;;;;;;;;;;1481992;40;7218;-65
2021/06/12 05:03:04;;;;;;;;;;;;;;;;;;1482389;40;7130;-66
2021/06/12 05:04:07;;;;;;;;;;;;;;;;;;1482440;40;7007;-66
2021/06/12 05:05:10;;;;;;;;;;;;;;;;;;1482309;40;6999;-65
2021/06/12 05:06:12;;;;;;;;;;;;;;;;;;1482362;40;7035;-64
2021/06/12 05:07:15;;;;;;;;;;;;;;;;;;1482616;40;7175;-64
2021/06/12 05:08:17;;;;;;;;;;;;;;;;;;1482645;40;8094;-67
2021/06/12 05:09:20;;;;;;;;;;;;;;;;;;1482157;40;7141;-63
2021/06/12 05:10:23;;;;;;;;;;;;;;;;;;1482539;40;7126;-66
2021/06/12 05:11:26;;;;;;;;;;;;;;;;;;1478099;40;7106;-67
2021/06/12 05:12:29;;;;;;;;;;;;;;;;;;1478130;40;7007;-64
2021/06/12 05:13:33;;;;;;;;;;;;;;;;;;1482559;40;7007;-66
2021/06/12 05:14:36;;;;;;;;;;;;;;;;;;1482523;40;7962;-66
2021/06/12 05:15:38;;;;;;;;;;;;;;;;;;1482662;40;7023;-65
2021/06/12 05:16:40;;;;;;;;;;;;;;;;;;1482561;40;7003;-66
2021/06/12 05:17:43;;;;;;;;;;;;;;;;;;1484208;40;7003;-68
2021/06/12 05:18:46;;;;;;;;;;;;;;;;;;1484004;40;7915;-64
2021/06/12 05:19:48;;;;;;;;;;;;;;;;;;1481909;40;6996;-64
2021/06/12 05:20:51;;;;;;;;;;;;;;;;;;1478271;40;7035;-67
2021/06/12 05:21:53;;;;;;;;;;;;;;;;;;1479146;40;7273;-67
2021/06/12 05:22:56;;;;;;;;;;;;;;;;;;1483799;40;7105;-66
2021/06/12 05:23:59;;;;;;;;;;;;;;;;;;1482070;40;7171;-64
2021/06/12 05:25:02;;;;;;;;;;;;;;;;;;1482160;40;7931;-67
2021/06/12 05:26:05;;;;;;;;;;;;;;;;;;1481876;40;7180;-65
2021/06/12 05:27:07;;;;;;;;;;;;;;;;;;1482335;40;7027;-65
2021/06/12 05:28:10;;;;;;;;;;;;;;;;;;1482607;40;7975;-66
2021/06/12 05:29:12;;;;;;;;;;;;;;;;;;1484338;40;7121;-67
2021/06/12 05:30:15;;;;;;;;;;;;;;;;;;1483029;40;7040;-64
2021/06/12 05:31:17;;;;;;;;;;;;;;;;;;1482473;40;8794;-65
2021/06/12 05:32:20;;;;;;;;;;;;;;;;;;1484303;40;7285;-64
2021/06/12 05:33:23;;;;;;;;;;;;;;;;;;1482358;40;7000;-67
2021/06/12 05:34:26;;;;;;;;;;;;;;;;;;1482913;40;7012;-65
2021/06/12 05:35:28;;;;;;;;;;;;;;;;;;1482909;40;7047;-66
2021/06/12 05:36:31;;;;;;;;;;;;;;;;;;1482485;40;7007;-65
2021/06/12 05:37:35;;;;;;;;;;;;;;;;;;1482019;40;7828;-65
2021/06/12 05:38:38;;;;;;;;;;;;;;;;;;1482737;40;7003;-65
2021/06/12 05:39:40;;;;;;;;;;;;;;;;;;1482908;40;7008;-66
2021/06/12 05:40:44;;;;;;;;;;;;;;;;;;1483166;40;7007;-66
2021/06/12 05:41:47;;;;;;;;;;;;;;;;;;1482583;40;7000;-65
2021/06/12 05:42:49;;;;;;;;;;;;;;;;;;1482874;40;7008;-66
2021/06/12 05:43:51;;;;;;;;;;;;;;;;;;1482803;40;7000;-66
2021/06/12 05:44:54;;;;;;;;;;;;;;;;;;1482930;40;7003;-65
2021/06/12 05:45:56;;;;;;;;;;;;;;;;;;1483276;40;7202;-67
2021/06/12 05:46:59;;;;;;;;;;;;;;;;;;1483202;40;7108;-63
2021/06/12 05:48:01;;;;;;;;;;;;;;;;;;1483270;40;7258;-66
2021/06/12 05:49:04;;;;;;;;;;;;;;;;;;1483135;40;7098;-65
2021/06/12 05:50:07;;;;;;;;;;;;;;;;;;1483017;40;7369;-66
2021/06/12 05:51:10;;;;;;;;;;;;;;;;;;1482793;40;7191;-65
2021/06/12 05:52:12;;;;;;;;;;;;;;;;;;1482749;40;7038;-66
2021/06/12 05:53:15;;;;;;;;;;;;;;;;;;1482962;40;7003;-66
2021/06/12 05:54:17;;;;;;;;;;;;;;;;;;1482872;40;7882;-64
2021/06/12 05:55:20;;;;;;;;;;;;;;;;;;1482917;40;6999;-66
2021/06/12 05:56:22;;;;;;;;;;;;;;;;;;1479591;40;7067;-64
2021/06/12 05:57:25;;;;;;;;;;;;;;;;;;1478135;40;7409;-66
2021/06/12 05:58:27;;;;;;;;;;;;;;;;;;1482333;40;7035;-67
2021/06/12 05:59:30;;;;;;;;;;;;;;;;;;1482838;40;7008;-64
2021/06/12 06:00:32;;;;;;;;;;;;;;;;;;1483271;40;7887;-63
2021/06/12 06:01:35;;;;;;;;;;;;;;;;;;1482719;40;7135;-64
2021/06/12 06:02:37;;;;;;;;;;;;;;;;;;1483646;40;7137;-66
2021/06/12 06:03:40;;;;;;;;;;;;;;;;;;1482747;40;7003;-66
2021/06/12 06:04:43;;;;;;;;;;;;;;;;;;1486071;40;7923;-65
2021/06/12 06:05:45;;;;;;;;;;;;;;;;;;1487172;40;7039;-67
2021/06/12 06:06:49;;;;;;;;;;;;;;;;;;1487054;40;7012;-64
2021/06/12 06:07:52;;;;;;;;;;;;;;;;;;1487121;40;7031;-63
2021/06/12 06:08:54;;;;;;;;;;;;;;;;;;1486966;40;7930;-65
2021/06/12 06:09:57;;;;;;;;;;;;;;;;;;1486973;40;7043;-67
2021/06/12 06:11:00;;;;;;;;;;;;;;;;;;1487353;40;7012;-65
2021/06/12 06:12:05;;;;;;;;;;;;;;;;;;1482577;40;7012;-67
2021/06/12 06:13:08;;;;;;;;;;;;;;;;;;1483116;40;8082;-64
2021/06/12 06:14:10;;;;;;;;;;;;;;;;;;1483178;40;7040;-67
2021/06/12 06:15:13;;;;;;;;;;;;;;;;;;1482481;40;7064;-66
2021/06/12 06:16:16;;;;;;;;;;;;;;;;;;1483077;40;7008;-66
2021/06/12 06:17:18;;;;;;;;;;;;;;;;;;1483482;40;7015;-64
2021/06/12 06:18:21;;;;;;;;;;;;;;;;;;1487108;40;7031;-65
2021/06/12 06:19:23;;;;;;;;;;;;;;;;;;1483799;40;7007;-64
2021/06/12 06:20:26;;;;;;;;;;;;;;;;;;1484195;40;7859;-67
2021/06/12 06:21:28;;;;;;;;;;;;;;;;;;1484383;40;7016;-66
2021/06/12 06:22:31;;;;;;;;;;;;;;;;;;1482471;40;7962;-65
2021/06/12 06:23:34;;;;;;;;;;;;;;;;;;1486954;40;7114;-65
2021/06/12 06:24:36;;;;;;;;;;;;;;;;;;1486754;40;7105;-66
2021/06/12 06:25:39;;;;;;;;;;;;;;;;;;1485091;40;6999;-65
2021/06/12 06:26:41;;;;;;;;;;;;;;;;;;1483629;40;8025;-65
2021/06/12 06:27:44;;;;;;;;;;;;;;;;;;1478645;40;7223;-64
2021/06/12 06:28:49;;;;;;;;;;;;;;;;;;1481508;40;7266;-66
2021/06/12 06:29:52;;;;;;;;;;;;;;;;;;1482503;40;7003;-64
2021/06/12 06:30:54;;;;;;;;;;;;;;;;;;1482099;40;7020;-65
2021/06/12 06:31:57;;;;;;;;;;;;;;;;;;1483011;40;7003;-65
2021/06/12 06:33:00;;;;;;;;;;;;;;;;;;1483764;40;7905;-63
2021/06/12 06:34:03;;;;;;;;;;;;;;;;;;1483870;40;7031;-64
2021/06/12 06:35:06;;;;;;;;;;;;;;;;;;1483507;40;7035;-63
2021/06/12 06:36:08;;;;;;;;;;;;;;;;;;1482479;40;7048;-67
2021/06/12 06:37:11;;;;;;;;;;;;;;;;;;1482999;40;7016;-64
2021/06/12 06:38:13;;;;;;;;;;;;;;;;;;1483494;40;7014;-65
2021/06/12 06:39:16;;;;;;;;;;;;;;;;;;1469850;40;7004;-65
2021/06/12 06:40:18;;;;;;;;;;;;;;;;;;1483052;40;7247;-65
2021/06/12 06:41:21;;;;;;;;;;;;;;;;;;1482579;40;7003;-64
2021/06/12 06:42:23;;;;;;;;;;;;;;;;;;1482380;40;7055;-64
2021/06/12 06:43:25;;;;;;;;;;;;;;;;;;1486593;40;7023;-66
2021/06/12 06:44:28;;;;;;;;;;;;;;;;;;1484162;40;7120;-65
2021/06/12 06:45:31;;;;;;;;;;;;;;;;;;1486743;40;7191;-64
2021/06/12 06:46:33;;;;;;;;;;;;;;;;;;1486864;40;6999;-65
2021/06/12 06:47:36;;;;;;;;;;;;;;;;;;1486852;40;6999;-66
2021/06/12 06:48:38;;;;;;;;;;;;;;;;;;1486950;40;7860;-64
2021/06/12 06:49:41;;;;;;;;;;;;;;;;;;1486975;40;7034;-68
2021/06/12 06:50:44;;;;;;;;;;;;;;;;;;1487381;40;7031;-67
2021/06/12 06:51:47;;;;;;;;;;;;;;;;;;1487421;40;7019;-67
2021/06/12 06:52:49;;;;;;;;;;;;;;;;;;1486981;40;6999;-66
2021/06/12 06:53:52;;;;;;;;;;;;;;;;;;1487089;40;6999;-64
2021/06/12 06:54:54;;;;;;;;;;;;;;;;;;1487153;40;7931;-65
2021/06/12 06:55:56;;;;;;;;;;;;;;;;;;1486877;40;7889;-62
2021/06/12 06:56:59;;;;;;;;;;;;;;;;;;1483994;40;7008;-65
2021/06/12 06:58:02;;;;;;;;;;;;;;;;;;1486414;40;7007;-65
2021/06/12 06:59:04;;;;;;;;;;;;;;;;;;1486395;40;7409;-63
2021/06/12 07:00:07;;;;;;;;;;;;;;;;;;1485249;40;7973;-66
2021/06/12 07:01:10;;;;;;;;;;;;;;;;;;1486903;40;7112;-67
2021/06/12 07:02:12;;;;;;;;;;;;;;;;;;1485362;40;7011;-65
2021/06/12 07:03:14;;;;;;;;;;;;;;;;;;1482957;40;7003;-66
2021/06/12 07:04:17;;;;;;;;;;;;;;;;;;1483071;40;7158;-67
2021/06/12 07:05:19;;;;;;;;;;;;;;;;;;1482927;40;7927;-65
2021/06/12 07:06:22;;;;;;;;;;;;;;;;;;1483014;40;7212;-67
2021/06/12 07:07:24;;;;;;;;;;;;;;;;;;1482914;40;7007;-64
2021/06/12 07:08:27;;;;;;;;;;;;;;;;;;1482791;40;7128;-66
2021/06/12 07:09:29;;;;;;;;;;;;;;;;;;1483534;40;6999;-64
2021/06/12 07:10:32;;;;;;;;;;;;;;;;;;1484481;40;7175;-64
2021/06/12 07:11:34;;;;;;;;;;;;;;;;;;1483420;40;8731;-63
2021/06/12 07:12:37;;;;;;;;;;;;;;;;;;1485213;40;7055;-65
2021/06/12 07:13:39;;;;;;;;;;;;;;;;;;1486807;40;7849;-63
2021/06/12 07:14:43;;;;;;;;;;;;;;;;;;1486371;39;7574;-63
2021/06/12 07:15:46;;;;;;;;;;;;;;;;;;1482411;40;7035;-66
2021/06/12 07:16:48;;;;;;;;;;;;;;;;;;1487089;40;7024;-63
2021/06/12 07:17:51;;;;;;;;;;;;;;;;;;1484713;40;7045;-66
2021/06/12 07:18:54;;;;;;;;;;;;;;;;;;1475845;40;7003;-64
2021/06/12 07:19:57;;;;;;;;;;;;;;;;;;1477718;40;6999;-66
2021/06/12 07:20:59;;;;;;;;;;;;;;;;;;1481461;40;7007;-63